Tiempo atmosférico en la estación meteorológica de Fresno De Sayago, Zamora (804 m.)



Fecha
DESCASC
Temp. máxima en grados centígrados (hora)
DESCASC
Temp. mínima en grados centígrados (hora)
DESCASC
Temp. media en grados centígrados
DESCASC
Racha de viento máxima en m/sg (hora)
DESCASC
Velocidad máxima media en intervalos de 10 minutos(hora)
DESCASC
Precipitaciones diarias en mm
DESCASC
Precipitaciones de 00:00 a 06:00 en mm
DESCASC
Precipitaciones de 06:00 a 12:00 en mm
DESCASC
Precipitaciones de 12:00 a 18:00 en mm
DESCASC
Precipitaciones de 18:00 a 24:00 en mm
DESCASC
23-05-2018 24.7 (17:20) 10.7 (06:30) 17.7 8.33 (15:00) 5.28 (19:30) 0 0 0 0 0
22-05-2018 25.2 (15:00) 7.8 (05:30) 16.5 6.11 (21:10) 3.61 (22:00) 0 0 0 0 0
21-05-2018 23.3 (19:00) 6.7 (05:40) 15 8.33 (15:40) 4.72 (18:50) 0 0 0 0 0
20-05-2018 23.3 (17:10) 8.2 (00:00) 15.7 11.39 (19:40) 6.94 (18:10) 2.2 0 0 0 2.2
19-05-2018 24.2 (18:50) 6.5 (03:50) 15.4 7.22 (18:20) 5.56 (08:20) 0 0 0 0 0
18-05-2018 21.6 (17:00) 9.1 (00:00) 15.4 11.39 (19:50) 6.94 (19:50) 3.2 3.2 0 0 0
17-05-2018 24.7 (16:10) 6.1 (00:00) 15.4 16.67 (18:40) 10 (21:50) 0 0 0 0 0
16-05-2018 23.3 (19:00) 3.5 (00:00) 13.4 11.39 (09:30) 8.33 (09:10) 0 0 0 0 0
15-05-2018 21.1 (18:00) -0.2 (00:00) 10.5 10 (19:40) 6.39 (09:40) 0 0 0 0 0
14-05-2018 18.3 (18:00) 5.7 (00:00) 12 10.56 (18:40) 6.67 (18:40) 0.6 0 0 0.6 0
13-05-2018 14.2 (17:30) -0.8 (-00:0) 6.7 11.11 (17:40) 8.06 (17:20) 0 0 0 0 0
12-05-2018 13.9 (17:30) 4 (00:00) 8.9 14.17 (18:50) 9.17 (06:40) 0 0 0 0 0
11-05-2018 21.3 (18:30) 4.7 (06:50) 13 13.61 (19:40) 8.06 (19:20) 0 0 0 0 0
10-05-2018 21.8 (19:00) 7.1 (00:00) 14.4 12.78 (11:40) 8.33 (10:10) 0 0 0 0 0
09-05-2018 22.7 (16:50) 6.7 (00:00) 14.7 11.67 (20:00) 7.5 (20:20) 0 0 0 0 0
08-05-2018 25.8 (16:00) 11.2 (00:00) 18.5 8.61 (21:40) 6.11 (21:40) 0.4 0 0 0 0.4
07-05-2018 27.8 (20:00) 9.3 (00:00) 18.5 7.5 (21:20) 5.28 (21:30) 0 0 0 0 0
06-05-2018 24 (15:40) 6.1 (07:30) 15 8.33 (08:50) 6.67 (08:50) 5.2 0 0 0 5.2
05-05-2018 19.7 (19:10) 2.9 (00:00) 11.3 9.44 (00:10) 7.5 (09:00) 0 0 0 0 0
04-05-2018 15.4 (18:50) 1.1 (00:00) 8.2 19.17 (10:30) 14.17 (10:20) 0 0 0 0 0
03-05-2018 15.7 (16:50) 5.2 (00:00) 10.4 10.83 (11:50) 7.22 (11:20) 0 0 0 0 0
02-05-2018 14.7 (16:20) 2.7 (00:00) 8.7 9.72 (13:20) 6.11 (18:20) 0 0 0 0 0
01-05-2018 14.8 (15:20) 2.3 (06:40) 8.6 6.39 (18:00) 4.17 (09:30) 0 0 0 0 0
30-04-2018 11.1 (16:30) 1.4 (00:00) 6.3 10 (18:40) 7.5 (18:40) 3.2 0 0 0.2 3
29-04-2018 10.1 (15:10) 1.6 (00:00) 5.9 18.61 (15:20) 13.06 (15:20) 3.2 0.2 2.4 0.6 0
28-04-2018 13.1 (19:30) 3.4 (00:00) 8.3 11.39 (16:30) 7.5 (16:30) 0 0 0 0 0
27-04-2018 17.1 (17:40) 6.3 (00:00) 11.7 13.89 (17:20) 7.22 (00:10) 0 0 0 0 0
26-04-2018 23.2 (16:40) 6.6 (00:00) 14.9 10.83 (00:20) 8.33 (00:20) 0 0 0 0 0
25-04-2018 28.3 (18:10) 10.5 (00:00) 19.4 12.78 (22:50) 9.44 (23:30) 0 0 0 0 0

Gráficas

Temp. máximas Temp. mínimas Temp. medias Precipitaciones Rachas de viento máximas Velocidades máximas media en intervalos de 10 minutos

Datos horarios

Fecha y hora oficial Temperatura (ºC) Velocidad del viento (km/h) Dirección del viento Racha (km/h) Dirección de racha Precipitación (mm) Presión (hPa) Tendencia (hPa) Humedad (%)
2018-05-24 23:00:00 13.7 10 Este 24 Nordeste 0.2 -- -- 93
2018-05-24 22:00:00 14.4 17 Nordeste 33 Nordeste 1.2 -- -- 90
2018-05-24 21:00:00 15.9 21 Nordeste 38 Nordeste 0 -- -- 79
2018-05-24 20:00:00 17.4 26 Nordeste 37 Nordeste 0 -- -- 70
2018-05-24 19:00:00 18 23 Nordeste 36 Nordeste 0 -- -- 70
2018-05-24 18:00:00 17.4 21 Nordeste 31 Nordeste 0 -- -- 77
2018-05-24 17:00:00 15.8 17 Nordeste 27 Nordeste 0 -- -- 88
2018-05-24 16:00:00 14.9 14 Norte 25 Norte 0 -- -- 94
2018-05-24 15:00:00 13.8 18 Norte 28 Norte 0.2 -- -- 93
2018-05-24 14:00:00 14 14 Norte 19 Noroeste 1 -- -- 94
2018-05-24 13:00:00 14.1 11 Norte 21 Norte 2.2 -- -- 93
2018-05-24 12:00:00 14.9 7 Norte 28 Nordeste 0 -- -- 82
2018-05-24 11:00:00 13.7 22 Nordeste 32 Este 0 -- -- 91
2018-05-24 10:00:00 12.8 22 Nordeste 30 Este 0 -- -- 94
2018-05-24 09:00:00 12.1 19 Nordeste 27 Nordeste 0 -- -- 99
2018-05-24 08:00:00 10.8 21 Nordeste 27 Nordeste 0 -- -- 99
2018-05-24 07:00:00 10.6 13 Nordeste 18 Nordeste 0 -- -- 100
2018-05-24 06:00:00 10.3 13 Nordeste 18 Nordeste 0 -- -- 98
2018-05-24 05:00:00 11 14 Nordeste 18 Nordeste 0 -- -- 96
2018-05-24 04:00:00 10.8 12 Nordeste 17 Nordeste 0 -- -- 95
2018-05-24 03:00:00 12.5 14 Nordeste 25 Este 0 -- -- 86
2018-05-24 02:00:00 13.5 15 Nordeste 21 Nordeste 0 -- -- 83
2018-05-24 01:00:00 14 15 Nordeste 21 Nordeste 0 -- -- 75
2018-05-24 00:00:00 12.5 5 Sur 6 Sudeste 0 -- -- 65
2018-05-23 23:00:00 15.5 5 Oeste 16 Sudoeste 0 -- -- 52
2018-05-23 22:00:00 18.7 14 Sudoeste 21 Oeste 0 -- -- 42
2018-05-23 21:00:00 22.8 6 Sudoeste 19 Oeste 0 -- -- 37
2018-05-23 20:00:00 21.3 13 Oeste 27 Oeste 0 -- -- 39
2018-05-23 19:00:00 23 15 Oeste 28 Oeste 0 -- -- 34
2018-05-23 18:00:00 22.5 13 Oeste 28 Oeste 0 -- -- 37
2018-05-23 17:00:00 23.9 14 Sudoeste 30 Oeste 0 -- -- 35
2018-05-23 16:00:00 23.5 10 Oeste 27 Oeste 0 -- -- 35
2018-05-23 15:00:00 20.7 14 Sudoeste 30 Oeste 0 -- -- 46
2018-05-23 14:00:00 24.5 5 Este 16 Oeste 0 -- -- 35
2018-05-23 13:00:00 22.6 6 Nordeste 10 Este 0 -- -- 38
2018-05-23 12:00:00 21.4 5 Nordeste 12 Nordeste 0 -- -- 44
2018-05-23 11:00:00 18.7 6 Nordeste 11 Nordeste 0 -- -- 56
2018-05-23 10:00:00 16.1 9 Nordeste 12 Nordeste 0 -- -- 66
2018-05-23 09:00:00 14.3 8 Nordeste 10 Nordeste 0 -- -- 74
2018-05-23 08:00:00 12.5 7 Nordeste 10 Nordeste 0 -- -- 81
2018-05-23 07:00:00 11.2 4 Sur 5 Sur 0 -- -- 80
2018-05-23 06:00:00 10.9 4 Sur 6 Sur 0 -- -- 80
2018-05-23 05:00:00 11.8 3 Sur 8 Sur 0 -- -- 78
2018-05-23 04:00:00 13.8 4 Sur 6 Sur 0 -- -- 74
2018-05-23 03:00:00 14.4 3 Sudeste 10 Sur 0 -- -- 71
2018-05-23 02:00:00 15.1 6 Sur 8 Sur 0 -- -- 70
2018-05-23 01:00:00 14.9 0 Calma 4 Oeste 0 -- -- 69
2018-05-23 00:00:00 14.9 4 Sur 9 Sur 0 -- -- 68
2018-05-22 23:00:00 16.1 6 Sudoeste 15 Sudoeste 0 -- -- 64
2018-05-22 22:00:00 17.6 13 Sudoeste 22 Sur 0 -- -- 57
2018-05-22 21:00:00 19.7 10 Sur 20 Sur 0 -- -- 51
2018-05-22 20:00:00 21.3 8 Sur 14 Sudoeste 0 -- -- 41
2018-05-22 19:00:00 23 11 Oeste 21 Oeste 0 -- -- 32
2018-05-22 18:00:00 24.7 8 Oeste 15 Oeste 0 -- -- 29
2018-05-22 17:00:00 22.5 10 Oeste 18 Oeste 0 -- -- 32
2018-05-22 16:00:00 24.6 8 Oeste 17 Oeste 0 -- -- 31
2018-05-22 15:00:00 25.2 7 Sudeste 13 Sudeste 0 -- -- 32
2018-05-22 14:00:00 22.7 6 Norte 18 Este 0 -- -- 37
2018-05-22 13:00:00 22.2 5 Sudoeste 13 Noroeste 0 -- -- 41
2018-05-22 12:00:00 20.1 4 Noroeste 11 Norte 0 -- -- 45
2018-05-22 11:00:00 18.8 5 Nordeste 12 Noroeste 0 -- -- 51
2018-05-22 10:00:00 16 3 Noroeste 9 Noroeste 0 -- -- 59
2018-05-22 09:00:00 12.6 3 Sudoeste 8 Sudoeste 0 -- -- 73
2018-05-22 08:00:00 10.4 0 Calma 6 Sur 0 -- -- 76
2018-05-22 07:00:00 8.2 4 Sur 6 Sur 0 -- -- 80
2018-05-22 06:00:00 8 4 Sur 6 Sur 0 -- -- 80
2018-05-22 05:00:00 8.5 6 Sur 8 Sur 0 -- -- 80
2018-05-22 04:00:00 9 4 Sudoeste 8 Sudoeste 0 -- -- 79
2018-05-22 03:00:00 10 6 Sudoeste 9 Sudoeste 0 -- -- 75
2018-05-22 02:00:00 11.4 7 Oeste 14 Oeste 0 -- -- 68
2018-05-22 01:00:00 13.2 12 Oeste 15 Sudoeste 0 -- -- 63
2018-05-22 00:00:00 12.3 8 Sudoeste 12 Sudoeste 0 -- -- 71
2018-05-21 23:00:00 13.5 8 Sudoeste 10 Sudoeste 0 -- -- 65
2018-05-21 22:00:00 15.6 12 Sudoeste 18 Sudoeste 0 -- -- 57
2018-05-21 21:00:00 17.6 10 Sudoeste 22 Oeste 0 -- -- 50
2018-05-21 20:00:00 21.9 15 Oeste 24 Oeste 0 -- -- 33
2018-05-21 19:00:00 23.3 11 Oeste 30 Oeste 0 -- -- 29
2018-05-21 18:00:00 22.8 16 Oeste 27 Oeste 0 -- -- 29
2018-05-21 17:00:00 22.6 13 Sudoeste 28 Oeste 0 -- -- 31
2018-05-21 16:00:00 21.4 15 Oeste 30 Sudoeste 0 -- -- 34
2018-05-21 15:00:00 21.8 7 Sudoeste 27 Sudoeste 0 -- -- 35
2018-05-21 14:00:00 21.2 12 Sudoeste 28 Oeste 0 -- -- 36
2018-05-21 13:00:00 19.7 13 Oeste 24 Oeste 0 -- -- 39
2018-05-21 12:00:00 18.7 12 Sudoeste 23 Oeste 0 -- -- 45
2018-05-21 11:00:00 17.4 11 Sudoeste 17 Sudoeste 0 -- -- 51
2018-05-21 10:00:00 14.9 6 Sudoeste 11 Sur 0 -- -- 64
2018-05-21 09:00:00 11.7 5 Sudoeste 8 Sur 0 -- -- 82
2018-05-21 08:00:00 8.8 6 Sudeste 8 Sudeste 0 -- -- 90
2018-05-21 07:00:00 7.2 7 Sur 10 Sur 0 -- -- 97
2018-05-21 06:00:00 6.9 4 Sur 9 Sudoeste 0 -- -- 95
2018-05-21 05:00:00 7.7 5 Sudoeste 9 Oeste 0 -- -- 90
2018-05-21 04:00:00 7.5 6 Sur 9 Sudeste 0 -- -- 93
2018-05-21 03:00:00 7.8 5 Sur 8 Sur 0 -- -- 90
2018-05-21 02:00:00 8.4 4 Sur 6 Sur 0 -- -- 86
2018-05-21 01:00:00 9 3 Sur 10 Sudoeste 0 -- -- 83
2018-05-21 00:00:00 9.6 9 Sudoeste 14 Sudoeste 0 -- -- 82
2018-05-20 23:00:00 10.7 4 Sudoeste 11 Sudoeste 0 -- -- 74
2018-05-20 22:00:00 12.7 8 Sudoeste 19 Sudoeste 0 -- -- 66
2018-05-20 21:00:00 16.4 13 Sudoeste 25 Sudoeste 0 -- -- 50
2018-05-20 20:00:00 17.8 19 Sudoeste 41 Sudoeste 0 -- -- 47
2018-05-20 19:00:00 16.3 15 Sur 39 Sur 2.2 -- -- 57
2018-05-20 18:00:00 20.8 18 Sur 31 Sudoeste 0 -- -- 38
2018-05-20 17:00:00 23 8 Norte 22 Nordeste 0 -- -- 26
2018-05-20 16:00:00 23 8 Nordeste 19 Nordeste 0 -- -- 26
2018-05-20 15:00:00 21.6 12 Nordeste 21 Este 0 -- -- 29
2018-05-20 14:00:00 20.5 12 Nordeste 22 Nordeste 0 -- -- 36
2018-05-20 13:00:00 18.3 11 Nordeste 19 Nordeste 0 -- -- 47
2018-05-20 12:00:00 17 14 Este 24 Nordeste 0 -- -- 55
2018-05-20 11:00:00 15.2 18 Nordeste 24 Nordeste 0 -- -- 65
2018-05-20 10:00:00 12.3 17 Nordeste 24 Este 0 -- -- 74
2018-05-20 09:00:00 10.5 17 Nordeste 26 Nordeste 0 -- -- 84
2018-05-20 08:00:00 8.8 17 Nordeste 24 Nordeste 0 -- -- 95
2018-05-20 07:00:00 8.6 18 Nordeste 23 Nordeste 0 -- -- 91
2018-05-20 06:00:00 9.3 17 Nordeste 21 Nordeste 0 -- -- 85
2018-05-20 05:00:00 9.4 14 Nordeste 17 Nordeste 0 -- -- 84
2018-05-20 04:00:00 9.3 9 Nordeste 12 Nordeste 0 -- -- 82
2018-05-20 03:00:00 12.8 10 Norte 15 Noroeste 0 -- -- 67
2018-05-20 02:00:00 12.8 12 Este 20 Nordeste 0 -- -- 69
2018-05-20 01:00:00 11.9 9 Este 15 Este 0 -- -- 75
2018-05-20 00:00:00 11.4 5 Nordeste 11 Nordeste 0 -- -- 73
2018-05-19 23:00:00 13.3 8 Nordeste 11 Este 0 -- -- 65
2018-05-19 22:00:00 16.6 6 Norte 16 Nordeste 0 -- -- 53
2018-05-19 21:00:00 20.9 7 Norte 18 Nordeste 0 -- -- 37
2018-05-19 20:00:00 22.5 13 Nordeste 22 Nordeste 0 -- -- 31
2018-05-19 19:00:00 23.8 12 Nordeste 26 Nordeste 0 -- -- 28
2018-05-19 18:00:00 23.1 13 Norte 22 Noroeste 0 -- -- 30
2018-05-19 17:00:00 23.1 7 Norte 25 Norte 0 -- -- 33
2018-05-19 16:00:00 23 14 Norte 22 Norte 0 -- -- 34
2018-05-19 15:00:00 22.1 9 Nordeste 19 Este 0 -- -- 36
2018-05-19 14:00:00 20.4 13 Nordeste 26 Nordeste 0 -- -- 47
2018-05-19 13:00:00 18.9 15 Nordeste 24 Nordeste 0 -- -- 64
2018-05-19 12:00:00 16.7 13 Nordeste 21 Nordeste 0 -- -- 73
2018-05-19 11:00:00 14.7 14 Este 22 Nordeste 0 -- -- 81
2018-05-19 10:00:00 12.5 14 Nordeste 21 Nordeste 0 -- -- 92
2018-05-19 09:00:00 10.1 16 Nordeste 26 Nordeste 0 -- -- 99
2018-05-19 08:00:00 8.4 18 Nordeste 26 Nordeste 0 -- -- 100
2018-05-19 07:00:00 7.8 14 Nordeste 22 Nordeste 0 -- -- 100
2018-05-19 06:00:00 8 15 Nordeste 26 Nordeste 0 -- -- 99
2018-05-19 05:00:00 8.5 13 Nordeste 19 Nordeste 0 -- -- 100
2018-05-19 04:00:00 7.2 10 Nordeste 16 Nordeste 0 -- -- 100
2018-05-19 03:00:00 7.8 4 Nordeste 17 Nordeste 0 -- -- 94
2018-05-19 02:00:00 9 13 Nordeste 17 Nordeste 0 -- -- 95
2018-05-19 01:00:00 8.9 11 Nordeste 14 Nordeste 0 -- -- 85
2018-05-19 00:00:00 9.1 7 Nordeste 13 Nordeste 0 -- -- 84
2018-05-18 23:00:00 10.7 5 Nordeste 7 Noroeste 0 -- -- 81
2018-05-18 22:00:00 13.6 6 Sudeste 28 Este 0 -- -- 63
2018-05-18 21:00:00 15.6 12 Este 28 Este 0 -- -- 66
2018-05-18 20:00:00 16.3 24 Este 41 Nordeste 0 -- -- 63
2018-05-18 19:00:00 19.8 12 Este 18 Este 0 -- -- 51
2018-05-18 18:00:00 15.2 17 Este 32 Nordeste 0 -- -- 69
2018-05-18 17:00:00 21.6 8 Este 21 Nordeste 0 -- -- 37
2018-05-18 16:00:00 21.2 13 Este 27 Este 0 -- -- 40
2018-05-18 15:00:00 19 14 Nordeste 28 Nordeste 0 -- -- 49
2018-05-18 14:00:00 19.3 13 Este 26 Este 0 -- -- 49
2018-05-18 13:00:00 17.2 20 Este 30 Nordeste 0 -- -- 62
2018-05-18 12:00:00 15.2 19 Este 35 Este 0 -- -- 71
2018-05-18 11:00:00 13.1 21 Nordeste 30 Nordeste 0 -- -- 80
2018-05-18 10:00:00 11.6 19 Nordeste 27 Nordeste 0 -- -- 90
2018-05-18 09:00:00 10.8 19 Nordeste 25 Este 0 -- -- 97
2018-05-18 08:00:00 9.9 14 Nordeste 22 Nordeste 0 -- -- 99
2018-05-18 07:00:00 9.8 16 Nordeste 22 Este 0 -- -- 99
2018-05-18 06:00:00 10 19 Nordeste 31 Nordeste 0 -- -- 99
2018-05-18 05:00:00 9.9 6 Nordeste 21 Nordeste 0.2 -- -- 96
2018-05-18 04:00:00 9.9 8 Este 28 Este 2 -- -- 83
2018-05-18 03:00:00 10.1 22 Sudeste 34 Este 1 -- -- 81
2018-05-18 02:00:00 10.4 6 Nordeste 12 Este 0 -- -- 81
2018-05-18 01:00:00 10.2 9 Este 11 Este 0 -- -- 81
2018-05-18 00:00:00 11.2 6 Nordeste 15 Este 0 -- -- 74
2018-05-17 23:00:00 12.1 8 Este 30 Nordeste 0 -- -- 67
2018-05-17 22:00:00 12.1 26 Nordeste 47 Nordeste 0 -- -- 66
2018-05-17 21:00:00 13.5 22 Norte 36 Nordeste 0 -- -- 60
2018-05-17 20:00:00 16.7 10 Norte 35 Oeste 0 -- -- 41
2018-05-17 19:00:00 17.1 30 Noroeste 60 Noroeste 0 -- -- 32
2018-05-17 18:00:00 16 26 Noroeste 51 Noroeste 0 -- -- 43
2018-05-17 17:00:00 21.4 8 Oeste 12 Oeste 0 -- -- 30
2018-05-17 16:00:00 23.7 8 Este 25 Sur 0 -- -- 30
2018-05-17 15:00:00 22.7 7 Nordeste 19 Nordeste 0 -- -- 34
2018-05-17 14:00:00 21.2 9 Nordeste 21 Nordeste 0 -- -- 42
2018-05-17 13:00:00 18.4 11 Nordeste 21 Norte 0 -- -- 47
2018-05-17 12:00:00 16.2 12 Nordeste 21 Nordeste 0 -- -- 55
2018-05-17 11:00:00 13.8 15 Nordeste 22 Nordeste 0 -- -- 63
2018-05-17 10:00:00 11.7 18 Nordeste 31 Nordeste 0 -- -- 71
2018-05-17 09:00:00 9.3 24 Nordeste 35 Nordeste 0 -- -- 85
2018-05-17 08:00:00 7.2 22 Nordeste 31 Nordeste 0 -- -- 98
2018-05-17 07:00:00 6.2 19 Nordeste 30 Nordeste 0 -- -- 98
2018-05-17 06:00:00 6.9 23 Nordeste 34 Nordeste 0 -- -- 97
2018-05-17 05:00:00 7.3 19 Nordeste 26 Nordeste 0 -- -- 92
2018-05-17 04:00:00 8.1 14 Nordeste 26 Nordeste 0 -- -- 84
2018-05-17 03:00:00 9.1 18 Nordeste 26 Nordeste 0 -- -- 79
2018-05-17 02:00:00 10 16 Nordeste 23 Nordeste 0 -- -- 74
2018-05-17 01:00:00 11.6 19 Nordeste 25 Nordeste 0 -- -- 67
2018-05-17 00:00:00 12 16 Nordeste 23 Nordeste 0 -- -- 64
2018-05-16 23:00:00 12.3 14 Nordeste 20 Nordeste 0 -- -- 60
2018-05-16 22:00:00 12.9 11 Nordeste 21 Nordeste 0 -- -- 61
2018-05-16 21:00:00 19.2 15 Nordeste 22 Nordeste 0 -- -- 39
2018-05-16 20:00:00 21.5 14 Nordeste 24 Nordeste 0 -- -- 30
2018-05-16 19:00:00 23.3 11 Este 23 Nordeste 0 -- -- 29
2018-05-16 18:00:00 22.1 16 Nordeste 25 Nordeste 0 -- -- 30
2018-05-16 17:00:00 22.2 10 Nordeste 31 Nordeste 0 -- -- 33
2018-05-16 16:00:00 20.9 17 Nordeste 27 Nordeste 0 -- -- 35
2018-05-16 15:00:00 20 17 Este 29 Nordeste 0 -- -- 38
2018-05-16 14:00:00 18.1 19 Nordeste 33 Nordeste 0 -- -- 41
2018-05-16 13:00:00 16.2 23 Nordeste 35 Este 0 -- -- 45
2018-05-16 12:00:00 14.4 27 Nordeste 40 Nordeste 0 -- -- 46
2018-05-16 11:00:00 12.4 25 Nordeste 36 Nordeste 0 -- -- 53
2018-05-16 10:00:00 10.2 27 Nordeste 41 Nordeste 0 -- -- 53
2018-05-16 09:00:00 7.7 30 Nordeste 39 Nordeste 0 -- -- 60
2018-05-16 08:00:00 4.9 25 Nordeste 32 Nordeste 0 -- -- 66
2018-05-16 07:00:00 3.5 22 Nordeste 30 Nordeste 0 -- -- 65
2018-05-16 06:00:00 4.7 19 Nordeste 26 Nordeste 0 -- -- 59
2018-05-16 05:00:00 6 22 Nordeste 28 Nordeste 0 -- -- 64
2018-05-16 04:00:00 6.9 22 Nordeste 28 Nordeste 0 -- -- 64
2018-05-16 03:00:00 7.9 21 Nordeste 28 Nordeste 0 -- -- 64
2018-05-16 02:00:00 9.6 25 Nordeste 35 Nordeste 0 -- -- 61
2018-05-16 01:00:00 10.6 22 Nordeste 28 Nordeste 0 -- -- 57
2018-05-16 00:00:00 10.9 18 Este 23 Este 0 -- -- 63
2018-05-15 23:00:00 12 15 Este 20 Este 0 -- -- 60
2018-05-15 22:00:00 11.9 12 Este 19 Nordeste 0 -- -- 58
2018-05-15 21:00:00 17.8 16 Este 27 Nordeste 0 -- -- 37
2018-05-15 20:00:00 19.9 17 Nordeste 36 Este 0 -- -- 32
2018-05-15 19:00:00 20.1 22 Nordeste 33 Nordeste 0 -- -- 30
2018-05-15 18:00:00 21.1 15 Este 31 Nordeste 0 -- -- 27
2018-05-15 17:00:00 19.8 16 Nordeste 31 Nordeste 0 -- -- 29
2018-05-15 16:00:00 19.1 13 Nordeste 30 Nordeste 0 -- -- 33
2018-05-15 15:00:00 17.4 14 Nordeste 25 Nordeste 0 -- -- 29
2018-05-15 14:00:00 16.2 14 Nordeste 25 Nordeste 0 -- -- 28
2018-05-15 13:00:00 14.8 15 Este 28 Nordeste 0 -- -- 30
2018-05-15 12:00:00 12.5 19 Nordeste 33 Nordeste 0 -- -- 38
2018-05-15 11:00:00 10.8 18 Nordeste 27 Este 0 -- -- 49
2018-05-15 10:00:00 9.1 22 Este 31 Este 0 -- -- 48
2018-05-15 09:00:00 6.9 17 Este 27 Este 0 -- -- 55
2018-05-15 08:00:00 2.8 15 Nordeste 21 Este 0 -- -- 77
2018-05-15 07:00:00 0.7 14 Este 18 Este 0 -- -- 80
2018-05-15 06:00:00 1.6 7 Este 15 Este 0 -- -- 77
2018-05-15 05:00:00 2.1 14 Este 21 Este 0 -- -- 75
2018-05-15 04:00:00 3.4 15 Este 28 Nordeste 0 -- -- 73
2018-05-15 03:00:00 4.9 22 Este 27 Este 0 -- -- 70
2018-05-15 02:00:00 6.5 19 Nordeste 24 Nordeste 0 -- -- 68
2018-05-15 01:00:00 7.6 20 Nordeste 26 Nordeste 0 -- -- 64
2018-05-15 00:00:00 8.8 14 Nordeste 21 Nordeste 0 -- -- 58
2018-05-14 23:00:00 7.3 8 Nordeste 9 Nordeste 0 -- -- 70
2018-05-14 22:00:00 10.6 5 Nordeste 13 Nordeste 0 -- -- 58
2018-05-14 21:00:00 14.9 12 Nordeste 20 Este 0 -- -- 42
2018-05-14 20:00:00 17.3 15 Nordeste 32 Nordeste 0 -- -- 37
2018-05-14 19:00:00 17.9 19 Nordeste 38 Nordeste 0 -- -- 33
2018-05-14 18:00:00 18.3 18 Este 36 Nordeste 0 -- -- 36
2018-05-14 17:00:00 16.9 17 Nordeste 32 Nordeste 0 -- -- 39
2018-05-14 16:00:00 15.3 20 Nordeste 33 Nordeste 0 -- -- 47
2018-05-14 15:00:00 16.2 13 Nordeste 28 Nordeste 0 -- -- 54
2018-05-14 14:00:00 13.3 19 Nordeste 31 Noroeste 0.6 -- -- 72
2018-05-14 13:00:00 14.8 13 Noroeste 27 Noroeste 0 -- -- 58
2018-05-14 12:00:00 13.8 17 Noroeste 32 Oeste 0 -- -- 62
2018-05-14 11:00:00 12.1 18 Noroeste 31 Oeste 0 -- -- 69
2018-05-14 10:00:00 9.8 21 Oeste 33 Oeste 0 -- -- 77
2018-05-14 09:00:00 8.1 16 Oeste 24 Oeste 0 -- -- 80
2018-05-14 08:00:00 6.7 10 Sudoeste 19 Sudoeste 0 -- -- 86
2018-05-14 07:00:00 6.1 15 Oeste 25 Oeste 0 -- -- 85
2018-05-14 06:00:00 6.5 18 Oeste 28 Oeste 0 -- -- 84
2018-05-14 05:00:00 6.7 20 Oeste 29 Oeste 0 -- -- 83
2018-05-14 04:00:00 6.7 19 Oeste 24 Oeste 0 -- -- 82
2018-05-14 03:00:00 6.6 18 Oeste 27 Oeste 0 -- -- 83
2018-05-14 02:00:00 6.8 17 Oeste 23 Oeste 0 -- -- 80
2018-05-14 01:00:00 5.8 13 Oeste 17 Oeste 0 -- -- 81
2018-05-11 20:00:00 -- -- -- -- -- -- -- -- --
2018-05-11 19:00:00 20.4 26 Oeste 42 Oeste 0 -- -- 36
2018-05-11 18:00:00 20.6 22 Oeste 41 Oeste 0 -- -- 38
2018-05-11 17:00:00 20.4 23 Oeste 38 Oeste 0 -- -- 40
2018-05-11 16:00:00 20.1 25 Oeste 39 Sudoeste 0 -- -- 45
2018-05-11 15:00:00 20.2 26 Oeste 40 Oeste 0 -- -- 45
2018-05-11 14:00:00 19.2 21 Sudoeste 40 Sudoeste 0 -- -- 49
2018-05-11 13:00:00 18.4 16 Sudoeste 27 Oeste 0 -- -- 51
2018-05-11 12:00:00 16.6 14 Oeste 23 Oeste 0 -- -- 56
2018-05-11 11:00:00 16 10 Sudoeste 21 Oeste 0 -- -- 60
2018-05-11 10:00:00 13.4 10 Oeste 16 Oeste 0 -- -- 66
2018-05-11 09:00:00 9.4 5 Este 10 Nordeste 0 -- -- 78
2018-05-11 08:00:00 6.6 10 Nordeste 15 Nordeste 0 -- -- 83
2018-05-11 07:00:00 4.7 9 Nordeste 15 Nordeste 0 -- -- 85
2018-05-11 06:00:00 4.9 12 Nordeste 14 Nordeste 0 -- -- 83
2018-05-11 05:00:00 6.1 8 Nordeste 14 Nordeste 0 -- -- 78
2018-05-11 04:00:00 6 12 Nordeste 17 Nordeste 0 -- -- 80
2018-05-11 03:00:00 7.2 6 Nordeste 11 Nordeste 0 -- -- 74
2018-05-11 02:00:00 8.9 8 Nordeste 9 Nordeste 0 -- -- 67
2018-05-11 01:00:00 7.7 7 Nordeste 13 Nordeste 0 -- -- 78
2018-05-11 00:00:00 8.3 13 Nordeste 18 Nordeste 0 -- -- 75
2018-05-10 23:00:00 9.9 13 Nordeste 15 Nordeste 0 -- -- 68
2018-05-10 22:00:00 12.3 13 Nordeste 16 Nordeste 0 -- -- 61
2018-05-10 21:00:00 16.5 11 Nordeste 17 Nordeste 0 -- -- 47
2018-05-10 20:00:00 20.7 9 Este 19 Este 0 -- -- 33
2018-05-10 19:00:00 21.8 8 Este 20 Nordeste 0 -- -- 33
2018-05-10 18:00:00 20.3 11 Nordeste 25 Este 0 -- -- 39
2018-05-10 17:00:00 19.6 17 Este 31 Este 0 -- -- 41
2018-05-10 16:00:00 18.4 17 Nordeste 27 Este 0 -- -- 42
2018-05-10 15:00:00 17.8 17 Nordeste 29 Nordeste 0 -- -- 43
2018-05-10 14:00:00 17.5 15 Este 31 Nordeste 0 -- -- 45
2018-05-10 13:00:00 15.4 22 Este 35 Este 0 -- -- 52
2018-05-10 12:00:00 13.8 24 Este 46 Nordeste 0 -- -- 58
2018-05-10 11:00:00 12.7 27 Este 41 Nordeste 0 -- -- 56
2018-05-10 10:00:00 11 26 Este 37 Este 0 -- -- 64
2018-05-10 09:00:00 9.4 22 Este 30 Nordeste 0 -- -- 79
2018-05-10 08:00:00 7.6 19 Nordeste 27 Nordeste 0 -- -- 94
2018-05-10 07:00:00 7.1 18 Nordeste 26 Nordeste 0 -- -- 95
2018-05-10 06:00:00 7.7 17 Nordeste 26 Nordeste 0 -- -- 94
2018-05-10 05:00:00 8.5 17 Nordeste 25 Nordeste 0 -- -- 87
2018-05-10 04:00:00 9.1 14 Nordeste 23 Nordeste 0 -- -- 82
2018-05-10 03:00:00 9.4 8 Norte 13 Norte 0 -- -- 77
2018-05-10 02:00:00 9.5 3 Noroeste 13 Oeste 0 -- -- 76
2018-05-10 01:00:00 11 10 Noroeste 15 Oeste 0 -- -- 72
2018-05-10 00:00:00 12.4 10 Oeste 27 Oeste 0 -- -- 68
2018-05-09 23:00:00 14.1 20 Oeste 28 Oeste 0 -- -- 58
2018-05-09 22:00:00 14.8 21 Oeste 28 Oeste 0 -- -- 55
2018-05-09 21:00:00 16 20 Oeste 39 Noroeste 0 -- -- 58
2018-05-09 20:00:00 18.3 24 Oeste 42 Oeste 0 -- -- 54
2018-05-09 19:00:00 20.1 21 Oeste 32 Oeste 0 -- -- 42
2018-05-09 18:00:00 21.6 20 Oeste 30 Oeste 0 -- -- 41
2018-05-09 17:00:00 22 13 Oeste 22 Sudoeste 0 -- -- 39
2018-05-09 16:00:00 22.3 9 Oeste 23 Oeste 0 -- -- 42
2018-05-09 15:00:00 21.7 4 Este 12 Sudoeste 0 -- -- 43
2018-05-09 14:00:00 22.1 3 Este 14 Nordeste 0 -- -- 39
2018-05-09 13:00:00 18.3 8 Nordeste 15 Este 0 -- -- 52
2018-05-09 12:00:00 16.3 10 Este 19 Nordeste 0 -- -- 61
2018-05-09 11:00:00 14.1 13 Este 24 Nordeste 0 -- -- 73
2018-05-09 10:00:00 11.6 17 Este 25 Nordeste 0 -- -- 82
2018-05-09 09:00:00 9 13 Nordeste 21 Nordeste 0 -- -- 97
2018-05-09 08:00:00 7.5 9 Nordeste 14 Nordeste 0 -- -- 99
2018-05-09 07:00:00 7.2 13 Nordeste 20 Nordeste 0 -- -- 99
2018-05-09 06:00:00 8.1 18 Nordeste 23 Nordeste 0 -- -- 95
2018-05-09 05:00:00 9 17 Nordeste 23 Nordeste 0 -- -- 92
2018-05-09 04:00:00 10.2 18 Nordeste 23 Nordeste 0 -- -- 86
2018-05-09 03:00:00 10.9 17 Nordeste 21 Nordeste 0 -- -- 87
2018-05-09 02:00:00 11.7 18 Nordeste 24 Nordeste 0 -- -- 82
2018-05-09 01:00:00 12.8 19 Nordeste 25 Nordeste 0 -- -- 82
2018-05-09 00:00:00 13.5 15 Nordeste 22 Nordeste 0 -- -- 83
2018-05-08 23:00:00 14.5 14 Nordeste 29 Nordeste 0 -- -- 79
2018-05-08 22:00:00 16.4 17 Nordeste 31 Nordeste 0 -- -- 72
2018-05-08 21:00:00 21.7 4 Noroeste 9 Norte 0 -- -- 47
2018-05-08 20:00:00 20.2 4 Norte 17 Nordeste 0 -- -- 57
2018-05-08 19:00:00 18.7 15 Este 30 Nordeste 0.4 -- -- 64
2018-05-08 18:00:00 18.9 19 Nordeste 27 Nordeste 0 -- -- 61
2018-05-08 17:00:00 23.6 4 Oeste 16 Oeste 0 -- -- 42
2018-05-08 16:00:00 25.8 4 Noroeste 18 Oeste 0 -- -- 37
2018-05-08 15:00:00 24.6 4 Este 15 Noroeste 0 -- -- 40
2018-05-08 14:00:00 23.1 6 Sur 13 Nordeste 0 -- -- 45
2018-05-08 13:00:00 22.4 4 Nordeste 12 Nordeste 0 -- -- 46
2018-05-08 12:00:00 21.3 5 Este 18 Este 0 -- -- 48
2018-05-08 11:00:00 20.1 8 Este 17 Sudeste 0 -- -- 57
2018-05-08 10:00:00 18 8 Este 10 Este 0 -- -- 69
2018-05-08 09:00:00 15.2 4 Sudeste 7 Este 0 -- -- 83
2018-05-08 08:00:00 12.1 4 Nordeste 10 Este 0 -- -- 98
2018-05-08 07:00:00 11.6 6 Este 10 Nordeste 0 -- -- 98
2018-05-08 06:00:00 11.2 3 Este 8 Nordeste 0 -- -- 97
2018-05-08 05:00:00 12.6 2 Sur 7 Sudoeste 0 -- -- 90
2018-05-08 04:00:00 12.8 8 Sur 16 Sur 0 -- -- 86
2018-05-08 03:00:00 13.4 12 Sur 19 Sur 0 -- -- 83
2018-05-08 02:00:00 13.4 10 Sudeste 15 Sudeste 0 -- -- 85
2018-05-08 01:00:00 14.7 5 Sudeste 9 Sudeste 0 -- -- 82
2018-05-08 00:00:00 15.6 9 Sudoeste 19 Oeste 0 -- -- 77
2018-05-07 23:00:00 16.1 9 Sudoeste 19 Sudoeste 0 -- -- 73
2018-05-07 22:00:00 16.7 14 Sudoeste 27 Sudoeste 0 -- -- 66
2018-05-07 21:00:00 22 4 Sur 8 Sur 0 -- -- 39
2018-05-07 20:00:00 27.8 3 Sudeste 10 Este 0 -- -- 24
2018-05-07 19:00:00 26.3 6 Este 12 Este 0 -- -- 27
2018-05-07 18:00:00 25.1 8 Nordeste 19 Nordeste 0 -- -- 27
2018-05-07 17:00:00 25.3 7 Este 22 Norte 0 -- -- 28
2018-05-07 16:00:00 24.4 10 Este 21 Este 0 -- -- 33
2018-05-07 15:00:00 23.2 8 Nordeste 18 Nordeste 0 -- -- 38
2018-05-07 14:00:00 22.4 10 Este 18 Nordeste 0 -- -- 45
2018-05-07 13:00:00 21.4 8 Este 14 Nordeste 0 -- -- 51
2018-05-07 12:00:00 19.6 6 Este 14 Nordeste 0 -- -- 58
2018-05-07 11:00:00 16.2 9 Nordeste 15 Nordeste 0 -- -- 69
2018-05-07 10:00:00 13.8 10 Nordeste 15 Este 0 -- -- 74
2018-05-07 09:00:00 12.6 11 Este 17 Este 0 -- -- 79
2018-05-07 08:00:00 11.1 10 Nordeste 20 Nordeste 0 -- -- 86
2018-05-07 07:00:00 10.2 9 Nordeste 12 Nordeste 0 -- -- 97
2018-05-07 06:00:00 10.2 5 Nordeste 14 Nordeste 0 -- -- 97
2018-05-07 05:00:00 10 5 Este 14 Nordeste 0 -- -- 96
2018-05-07 04:00:00 10 4 Sudoeste 11 Sudeste 0 -- -- 92
2018-05-07 03:00:00 10.4 4 Sur 9 Noroeste 0 -- -- 91
2018-05-07 02:00:00 11.9 5 Norte 11 Noroeste 0 -- -- 83
2018-05-07 01:00:00 11.9 2 Este 8 Sudoeste 0 -- -- 83
2018-05-07 00:00:00 13.2 5 Sudoeste 17 Sur 0 -- -- 80
2018-05-06 23:00:00 14 11 Sudeste 18 Sudeste 0 -- -- 79
2018-05-06 22:00:00 14 7 Oeste 29 Sudeste 1.8 -- -- 80
2018-05-06 21:00:00 14.9 18 Sudeste 30 Sudeste 3.4 -- -- 74
2018-05-06 20:00:00 20.8 16 Oeste 21 Oeste 0 -- -- 46
2018-05-06 19:00:00 21.5 11 Oeste 24 Oeste 0 -- -- 45
2018-05-06 18:00:00 20.7 12 Nordeste 18 Nordeste 0 -- -- 47
2018-05-06 17:00:00 22.3 9 Norte 17 Nordeste 0 -- -- 44
2018-05-06 16:00:00 23.9 5 Este 13 Este 0 -- -- 36
2018-05-06 15:00:00 23.1 3 Nordeste 13 Este 0 -- -- 37
2018-05-06 14:00:00 20.8 6 Nordeste 21 Nordeste 0 -- -- 46
2018-05-06 13:00:00 18 15 Nordeste 24 Este 0 -- -- 58
2018-05-06 12:00:00 16 17 Nordeste 27 Nordeste 0 -- -- 62
2018-05-06 11:00:00 13.5 18 Nordeste 24 Nordeste 0 -- -- 71
2018-05-06 10:00:00 11 17 Nordeste 26 Nordeste 0 -- -- 82
2018-05-06 09:00:00 8.4 23 Nordeste 30 Nordeste 0 -- -- 95
2018-05-06 08:00:00 6.7 13 Nordeste 26 Nordeste 0 -- -- 99
2018-05-06 07:00:00 6.5 21 Nordeste 27 Nordeste 0 -- -- 98
2018-05-06 06:00:00 6.7 16 Nordeste 21 Nordeste 0 -- -- 96
2018-05-06 05:00:00 7.2 15 Nordeste 20 Nordeste 0 -- -- 95
2018-05-06 04:00:00 8.4 16 Nordeste 27 Nordeste 0 -- -- 84
2018-05-06 03:00:00 9 15 Nordeste 22 Nordeste 0 -- -- 82
2018-05-06 02:00:00 9.8 17 Nordeste 23 Nordeste 0 -- -- 79
2018-05-06 01:00:00 10.7 17 Nordeste 22 Nordeste 0 -- -- 76
2018-05-06 00:00:00 11.4 17 Nordeste 23 Nordeste 0 -- -- 72
2018-05-05 23:00:00 11.8 12 Nordeste 22 Este 0 -- -- 73
2018-05-05 22:00:00 13.7 2 Nordeste 11 Este 0 -- -- 62
2018-05-05 21:00:00 16.4 9 Este 22 Este 0 -- -- 55
2018-05-05 20:00:00 19.1 17 Este 26 Este 0 -- -- 43
2018-05-05 19:00:00 19.5 19 Nordeste 34 Nordeste 0 -- -- 42
2018-05-05 18:00:00 19 23 Nordeste 32 Nordeste 0 -- -- 45
2018-05-05 17:00:00 18.9 13 Nordeste 32 Este 0 -- -- 46
2018-05-05 16:00:00 17.2 17 Nordeste 27 Nordeste 0 -- -- 48
2018-05-05 15:00:00 16.5 15 Nordeste 28 Este 0 -- -- 51
2018-05-05 14:00:00 15.3 12 Nordeste 29 Este 0 -- -- 52
2018-05-05 13:00:00 13.4 17 Nordeste 29 Nordeste 0 -- -- 61
2018-05-05 12:00:00 11.8 19 Nordeste 32 Este 0 -- -- 65
2018-05-05 11:00:00 8.9 24 Nordeste 32 Este 0 -- -- 70
2018-05-05 10:00:00 7.5 24 Nordeste 33 Nordeste 0 -- -- 76
2018-05-05 09:00:00 5.3 27 Nordeste 33 Nordeste 0 -- -- 85
2018-05-05 08:00:00 3.4 23 Nordeste 30 Nordeste 0 -- -- 94
2018-05-05 07:00:00 2.9 14 Nordeste 20 Nordeste 0 -- -- 92
2018-05-05 06:00:00 3.1 13 Nordeste 23 Nordeste 0 -- -- 91
2018-05-05 05:00:00 3.5 15 Nordeste 23 Nordeste 0 -- -- 88
2018-05-05 04:00:00 4.1 13 Nordeste 25 Nordeste 0 -- -- 84
2018-05-05 03:00:00 5 16 Nordeste 22 Nordeste 0 -- -- 81
2018-05-05 02:00:00 5.5 13 Nordeste 26 Nordeste 0 -- -- 79
2018-05-05 01:00:00 6.5 19 Nordeste 34 Nordeste 0 -- -- 77
2018-05-05 00:00:00 7.6 27 Nordeste 37 Nordeste 0 -- -- 72
2018-05-04 23:00:00 8.6 28 Nordeste 35 Nordeste 0 -- -- 68
2018-05-04 22:00:00 10 23 Nordeste 32 Nordeste 0 -- -- 62
2018-05-04 21:00:00 12 22 Nordeste 34 Nordeste 0 -- -- 53
2018-05-04 20:00:00 14.2 25 Este 48 Este 0 -- -- 45
2018-05-04 19:00:00 15 27 Nordeste 43 Este 0 -- -- 42
2018-05-04 18:00:00 15.1 28 Este 44 Nordeste 0 -- -- 43
2018-05-04 17:00:00 14.6 31 Nordeste 48 Nordeste 0 -- -- 44
2018-05-04 16:00:00 14.3 32 Nordeste 58 Nordeste 0 -- -- 49
2018-05-04 15:00:00 13.2 32 Nordeste 53 Nordeste 0 -- -- 46
2018-05-04 14:00:00 12.3 35 Nordeste 55 Nordeste 0 -- -- 49
2018-05-04 13:00:00 10.9 39 Nordeste 57 Nordeste 0 -- -- 51
2018-05-04 12:00:00 9.7 40 Nordeste 60 Nordeste 0 -- -- 50
2018-05-04 11:00:00 7.6 43 Nordeste 69 Nordeste 0 -- -- 61
2018-05-04 10:00:00 6.9 42 Nordeste 62 Nordeste 0 -- -- 63
2018-05-04 09:00:00 5.1 32 Nordeste 48 Nordeste 0 -- -- 70
2018-05-04 08:00:00 2 22 Nordeste 42 Nordeste 0 -- -- 82
2018-05-04 07:00:00 1.6 21 Nordeste 30 Nordeste 0 -- -- 81
2018-05-04 06:00:00 1.5 20 Nordeste 26 Nordeste 0 -- -- 81
2018-05-04 05:00:00 1.8 19 Nordeste 34 Nordeste 0 -- -- 81
2018-05-04 04:00:00 2.6 22 Nordeste 30 Nordeste 0 -- -- 77
2018-05-04 03:00:00 2.9 21 Nordeste 33 Nordeste 0 -- -- 75
2018-05-04 02:00:00 4.2 26 Este 38 Este 0 -- -- 69
2018-05-04 01:00:00 4.9 23 Este 32 Nordeste 0 -- -- 71
2018-05-04 00:00:00 6 19 Este 31 Este 0 -- -- 66
2018-05-03 23:00:00 7 19 Este 35 Este 0 -- -- 61
2018-05-03 22:00:00 9.2 21 Este 32 Este 0 -- -- 56
2018-05-03 21:00:00 11.9 18 Este 30 Este 0 -- -- 51
2018-05-03 20:00:00 14.5 21 Nordeste 37 Este 0 -- -- 40
2018-05-03 19:00:00 15.1 20 Nordeste 30 Nordeste 0 -- -- 42
2018-05-03 18:00:00 14.2 21 Nordeste 34 Nordeste 0 -- -- 45
2018-05-03 17:00:00 14.8 22 Nordeste 35 Nordeste 0 -- -- 45
2018-05-03 16:00:00 14.8 25 Nordeste 35 Nordeste 0 -- -- 43
2018-05-03 15:00:00 14.2 22 Nordeste 37 Nordeste 0 -- -- 47
2018-05-03 14:00:00 13 19 Nordeste 32 Este 0 -- -- 57
2018-05-03 13:00:00 12.5 23 Nordeste 35 Nordeste 0 -- -- 61
2018-05-03 12:00:00 11.9 23 Nordeste 39 Nordeste 0 -- -- 66
2018-05-03 11:00:00 11.3 24 Nordeste 32 Nordeste 0 -- -- 65
2018-05-03 10:00:00 9.8 20 Nordeste 26 Nordeste 0 -- -- 81
2018-05-03 09:00:00 8.7 6 Noroeste 11 Noroeste 0 -- -- 99
2018-05-03 08:00:00 7.2 2 Noroeste 8 Noroeste 0 -- -- 100
2018-05-03 07:00:00 6.9 3 Noroeste 15 Noroeste 0 -- -- 100
2018-05-03 06:00:00 7.1 9 Noroeste 16 Noroeste 0 -- -- 100
2018-05-03 05:00:00 6.2 7 Noroeste 13 Noroeste 0 -- -- 100
2018-05-03 04:00:00 5.3 6 Noroeste 13 Oeste 0 -- -- 100
2018-05-03 03:00:00 6.5 11 Oeste 13 Oeste 0 -- -- 98
2018-05-03 02:00:00 6.5 6 Oeste 12 Noroeste 0 -- -- 98
2018-05-03 01:00:00 7.5 11 Oeste 14 Oeste 0 -- -- 88
2018-05-03 00:00:00 8.5 9 Noroeste 21 Oeste 0 -- -- 83
2018-05-02 23:00:00 9 12 Noroeste 20 Noroeste 0 -- -- 81
2018-05-02 22:00:00 9.7 12 Noroeste 22 Noroeste 0 -- -- 77
2018-05-02 21:00:00 11.7 12 Noroeste 28 Noroeste 0 -- -- 66
2018-05-02 20:00:00 12.2 14 Noroeste 29 Noroeste 0 -- -- 65
2018-05-02 19:00:00 13.2 20 Noroeste 31 Oeste 0 -- -- 58
2018-05-02 18:00:00 14.5 14 Noroeste 32 Noroeste 0 -- -- 53
2018-05-02 17:00:00 14 17 Oeste 30 Oeste 0 -- -- 51
2018-05-02 16:00:00 14.1 18 Oeste 32 Noroeste 0 -- -- 53
2018-05-02 15:00:00 12.7 17 Oeste 29 Oeste 0 -- -- 54
2018-05-02 14:00:00 11.7 17 Oeste 35 Oeste 0 -- -- 54
2018-05-02 13:00:00 9.9 21 Oeste 29 Oeste 0 -- -- 59
2018-05-02 12:00:00 9.1 15 Oeste 27 Sudoeste 0 -- -- 55
2018-05-02 11:00:00 7.6 15 Oeste 22 Oeste 0 -- -- 60
2018-05-02 10:00:00 6.7 11 Oeste 18 Oeste 0 -- -- 66
2018-05-02 09:00:00 5 9 Sudoeste 12 Sudoeste 0 -- -- 76
2018-05-02 08:00:00 3.1 6 Sudoeste 14 Sudoeste 0 -- -- 84
2018-05-02 07:00:00 3.2 8 Sudoeste 13 Sudoeste 0 -- -- 84
2018-05-02 06:00:00 2.9 9 Sudoeste 12 Sudoeste 0 -- -- 86
2018-05-02 05:00:00 2.7 9 Sudoeste 14 Sudoeste 0 -- -- 82
2018-05-02 04:00:00 3.2 10 Sudoeste 16 Sudoeste 0 -- -- 79
2018-05-02 03:00:00 4.2 6 Sudoeste 14 Oeste 0 -- -- 81
2018-05-02 02:00:00 4.2 12 Sudoeste 15 Oeste 0 -- -- 75
2018-05-02 01:00:00 5.9 14 Oeste 21 Oeste 0 -- -- 66
2018-05-02 00:00:00 6.8 13 Oeste 22 Oeste 0 -- -- 64
2018-05-01 23:00:00 7.1 7 Sudoeste 11 Oeste 0 -- -- 70
2018-05-01 22:00:00 8 9 Sudoeste 12 Sudoeste 0 -- -- 62
2018-05-01 21:00:00 10.8 9 Sudoeste 19 Oeste 0 -- -- 48
2018-05-01 20:00:00 12.9 14 Oeste 22 Oeste 0 -- -- 36
2018-05-01 19:00:00 13.4 8 Sudoeste 19 Sudoeste 0 -- -- 32
2018-05-01 18:00:00 13.8 13 Sudoeste 23 Sudoeste 0 -- -- 34
2018-05-01 17:00:00 12.8 3 Oeste 13 Oeste 0 -- -- 38
2018-05-01 16:00:00 12 4 Sudeste 14 Sur 0 -- -- 41
2018-05-01 15:00:00 12.9 8 Este 17 Este 0 -- -- 42
2018-05-01 14:00:00 10.2 4 Nordeste 18 Este 0 -- -- 52
2018-05-01 13:00:00 8.5 10 Este 19 Nordeste 0 -- -- 60
2018-05-01 12:00:00 8.1 11 Nordeste 17 Nordeste 0 -- -- 61
2018-05-01 11:00:00 8.1 11 Este 21 Este 0 -- -- 58
2018-05-01 10:00:00 7.2 13 Sudeste 21 Este 0 -- -- 66
2018-05-01 09:00:00 5.7 14 Este 21 Este 0 -- -- 75
2018-05-01 08:00:00 3 9 Nordeste 17 Este 0 -- -- 100
2018-05-01 07:00:00 2.7 10 Nordeste 15 Este 0 -- -- 100
2018-05-01 06:00:00 3.9 13 Nordeste 15 Nordeste 0 -- -- 98
2018-05-01 05:00:00 4 11 Nordeste 17 Nordeste 0 -- -- 95
2018-05-01 04:00:00 4.3 12 Nordeste 17 Nordeste 0 -- -- 89
2018-05-01 03:00:00 4.1 8 Este 11 Nordeste 0 -- -- 89
2018-05-01 02:00:00 4.5 6 Norte 10 Norte 0 -- -- 85
2018-05-01 01:00:00 4.4 7 Norte 10 Norte 0 -- -- 84
2018-05-01 00:00:00 3.5 0 Calma 5 Norte 0 -- -- 92
2018-04-30 23:00:00 4.2 4 Nordeste 10 Sudoeste 0 -- -- 86
2018-04-30 22:00:00 4.3 9 Sudoeste 11 Sur 0 -- -- 83
2018-04-30 21:00:00 5 8 Sudoeste 12 Nordeste 0.8 -- -- 82
2018-04-30 20:00:00 4.8 9 Nordeste 30 Nordeste 2.2 -- -- 82
2018-04-30 19:00:00 5.4 22 Nordeste 36 Nordeste 0 -- -- 77
2018-04-30 18:00:00 6.2 22 Norte 31 Norte 0.2 -- -- 73
2018-04-30 17:00:00 10.9 18 Oeste 31 Oeste 0 -- -- 44
2018-04-30 16:00:00 9.8 17 Oeste 31 Oeste 0 -- -- 48
2018-04-30 15:00:00 9.1 18 Oeste 33 Oeste 0 -- -- 52
2018-04-30 14:00:00 9.6 15 Oeste 33 Oeste 0 -- -- 49
2018-04-30 13:00:00 7.7 17 Oeste 30 Oeste 0 -- -- 59
2018-04-30 12:00:00 6.7 12 Noroeste 24 Noroeste 0 -- -- 65
2018-04-30 11:00:00 5.2 14 Oeste 23 Oeste 0 -- -- 69
2018-04-30 10:00:00 4.2 15 Oeste 22 Oeste 0 -- -- 77
2018-04-30 09:00:00 3.5 13 Oeste 22 Oeste 0 -- -- 88
2018-04-30 08:00:00 3 10 Sudoeste 16 Sudoeste 0 -- -- 95
2018-04-30 07:00:00 2.3 8 Sudoeste 23 Sudoeste 0 -- -- 95
2018-04-30 06:00:00 2.7 16 Sudoeste 22 Sudoeste 0 -- -- 95
2018-04-30 05:00:00 2.2 22 Oeste 32 Sudoeste 0 -- -- 96
2018-04-30 04:00:00 2.6 18 Sudoeste 25 Sudoeste 0 -- -- 93
2018-04-30 03:00:00 2.5 15 Sudoeste 24 Oeste 0 -- -- 93
2018-04-30 02:00:00 3.1 17 Sudoeste 24 Sudoeste 0 -- -- 92
2018-04-30 01:00:00 1.8 10 Sur 17 Sudoeste 0 -- -- 93
2018-04-30 00:00:00 1.6 12 Sudoeste 30 Oeste 0 -- -- 84
2018-04-29 23:00:00 3.7 20 Oeste 35 Oeste 0 -- -- 72
2018-04-29 22:00:00 3.9 16 Oeste 41 Sudoeste 0 -- -- 76
2018-04-29 21:00:00 4.6 32 Sudoeste 51 Oeste 0 -- -- 74
2018-04-29 20:00:00 6.2 26 Oeste 49 Oeste 0 -- -- 66
2018-04-29 19:00:00 7.2 30 Oeste 52 Oeste 0 -- -- 62
2018-04-29 18:00:00 7.5 35 Oeste 59 Oeste 0 -- -- 61
2018-04-29 17:00:00 8.7 27 Oeste 51 Oeste 0.4 -- -- 57
2018-04-29 16:00:00 6.6 34 Oeste 67 Sudoeste 0 -- -- 66
2018-04-29 15:00:00 9.5 36 Oeste 54 Sudoeste 0 -- -- 57
2018-04-29 14:00:00 8.5 32 Oeste 53 Oeste 0 -- -- 62
2018-04-29 13:00:00 5.6 33 Oeste 49 Oeste 0.2 -- -- 85
2018-04-29 12:00:00 5.7 26 Oeste 43 Sudoeste 0.2 -- -- 80
2018-04-29 11:00:00 5.4 27 Oeste 39 Oeste 0 -- -- 81
2018-04-29 10:00:00 4.8 22 Oeste 36 Sudoeste 0.2 -- -- 94
2018-04-29 09:00:00 4.2 24 Oeste 33 Oeste 0.2 -- -- 94
2018-04-29 08:00:00 3.6 15 Oeste 30 Oeste 0.8 -- -- 95
2018-04-29 07:00:00 4.1 16 Oeste 26 Sudoeste 1 -- -- 95
2018-04-29 06:00:00 4.5 16 Oeste 21 Oeste 0.2 -- -- 93
2018-04-29 05:00:00 4.8 13 Oeste 19 Oeste 0 -- -- 87
2018-04-29 04:00:00 5 14 Oeste 23 Oeste 0 -- -- 86
2018-04-29 03:00:00 5.6 13 Oeste 19 Oeste 0 -- -- 81
2018-04-29 02:00:00 5.8 9 Oeste 12 Sudoeste 0 -- -- 80
2018-04-29 01:00:00 5.9 10 Sur 17 Sudoeste 0 -- -- 78
2018-04-29 00:00:00 6.2 13 Oeste 32 Sudoeste 0 -- -- 74
2018-04-28 23:00:00 7.3 27 Sudoeste 38 Oeste 0 -- -- 69
2018-04-28 22:00:00 8.3 14 Sudoeste 19 Sudoeste 0 -- -- 59
2018-04-28 21:00:00 8.9 18 Sudoeste 34 Sudoeste 0 -- -- 55
2018-04-28 20:00:00 12.6 17 Noroeste 30 Oeste 0 -- -- 34
2018-04-28 19:00:00 12.8 16 Oeste 32 Oeste 0 -- -- 34
2018-04-28 18:00:00 11.5 23 Oeste 34 Sudoeste 0 -- -- 41
2018-04-28 17:00:00 12.1 24 Sudoeste 41 Sudoeste 0 -- -- 37
2018-04-28 16:00:00 12 23 Sudoeste 39 Sudoeste 0 -- -- 39
2018-04-28 15:00:00 11.2 25 Oeste 39 Oeste 0 -- -- 46
2018-04-28 14:00:00 10.9 19 Sudoeste 34 Norte 0 -- -- 52
2018-04-28 13:00:00 9.6 16 Oeste 28 Oeste 0 -- -- 62
2018-04-28 12:00:00 9.6 13 Oeste 21 Oeste 0 -- -- 59
2018-04-28 11:00:00 7.5 10 Oeste 18 Oeste 0 -- -- 71
2018-04-28 10:00:00 7 13 Oeste 18 Oeste 0 -- -- 73
2018-04-28 09:00:00 5.8 10 Oeste 17 Oeste 0 -- -- 80
2018-04-28 08:00:00 3.8 4 Sudoeste 5 Sudoeste 0 -- -- 91
2018-04-28 07:00:00 3.9 3 Oeste 14 Oeste 0 -- -- 84
2018-04-28 06:00:00 5.4 4 Oeste 14 Oeste 0 -- -- 82
2018-04-28 05:00:00 6.5 9 Oeste 13 Oeste 0 -- -- 79
2018-04-28 04:00:00 6.9 2 Oeste 11 Oeste 0 -- -- 72
2018-04-28 03:00:00 7.9 11 Oeste 16 Oeste 0 -- -- 69
2018-04-28 02:00:00 8.5 11 Oeste 15 Oeste 0 -- -- 64
2018-04-28 01:00:00 10 12 Oeste 18 Oeste 0 -- -- 58
2018-04-28 00:00:00 10.8 12 Oeste 21 Oeste 0 -- -- 56
2018-04-27 23:00:00 11.2 13 Oeste 19 Oeste 0 -- -- 53
2018-04-27 22:00:00 10.6 12 Oeste 22 Oeste 0 -- -- 54
2018-04-27 21:00:00 12.6 18 Oeste 24 Oeste 0 -- -- 47
2018-04-27 20:00:00 14.6 15 Oeste 27 Oeste 0 -- -- 47
2018-04-27 19:00:00 15.6 21 Oeste 36 Oeste 0 -- -- 41
2018-04-27 18:00:00 16.6 23 Oeste 50 Oeste 0 -- -- 36
2018-04-27 17:00:00 15.3 18 Oeste 40 Oeste 0 -- -- 42
2018-04-27 16:00:00 16.2 23 Oeste 38 Oeste 0 -- -- 40
2018-04-27 15:00:00 15.6 21 Oeste 36 Oeste 0 -- -- 46
2018-04-27 14:00:00 15.6 21 Oeste 34 Sudoeste 0 -- -- 47
2018-04-27 13:00:00 13.9 16 Oeste 37 Oeste 0 -- -- 53
2018-04-27 12:00:00 13.3 17 Oeste 32 Oeste 0 -- -- 57
2018-04-27 11:00:00 12.3 15 Oeste 26 Sudoeste 0 -- -- 57
2018-04-27 10:00:00 10.5 17 Oeste 28 Oeste 0 -- -- 66
2018-04-27 09:00:00 8.9 16 Oeste 22 Oeste 0 -- -- 75
2018-04-27 08:00:00 8.5 15 Oeste 24 Oeste 0 -- -- 80
2018-04-27 07:00:00 6.3 6 Sudoeste 13 Sudoeste 0 -- -- 98
2018-04-27 06:00:00 7.6 10 Sudoeste 18 Sudoeste 0 -- -- 96
2018-04-27 05:00:00 8.2 9 Sudoeste 14 Sudoeste 0 -- -- 96
2018-04-27 04:00:00 9.4 12 Sudoeste 19 Oeste 0 -- -- 85
2018-04-27 03:00:00 12 14 Oeste 31 Oeste 0 -- -- 72
2018-04-27 02:00:00 14.1 17 Oeste 29 Oeste 0 -- -- 68
2018-04-27 01:00:00 15.4 14 Oeste 36 Oeste 0 -- -- 64
2018-04-27 00:00:00 16.9 23 Oeste 32 Oeste 0 -- -- 61
2018-04-26 23:00:00 16.2 5 Sudoeste 8 Sudoeste 0 -- -- 69
2018-04-26 22:00:00 17 6 Oeste 15 Oeste 0 -- -- 60
2018-04-26 21:00:00 18.9 12 Oeste 17 Oeste 0 -- -- 57
2018-04-26 20:00:00 21.5 15 Oeste 23 Oeste 0 -- -- 49
2018-04-26 19:00:00 22.3 15 Oeste 30 Oeste 0 -- -- 46
2018-04-26 18:00:00 22.9 9 Oeste 20 Sudoeste 0 -- -- 42
2018-04-26 17:00:00 22.9 4 Noroeste 12 Nordeste 0 -- -- 44
2018-04-26 16:00:00 21.8 7 Este 15 Sur 0 -- -- 49
2018-04-26 15:00:00 19.6 8 Este 18 Nordeste 0 -- -- 52
2018-04-26 14:00:00 16.8 12 Nordeste 23 Este 0 -- -- 59
2018-04-26 13:00:00 14.9 14 Nordeste 26 Este 0 -- -- 65
2018-04-26 12:00:00 13.1 19 Este 33 Norte 0 -- -- 67
2018-04-26 11:00:00 11.2 19 Este 30 Nordeste 0 -- -- 74
2018-04-26 10:00:00 9.6 24 Nordeste 33 Nordeste 0 -- -- 79
2018-04-26 09:00:00 7.9 21 Nordeste 28 Nordeste 0 -- -- 85
2018-04-26 08:00:00 6.6 17 Nordeste 27 Nordeste 0 -- -- 89
2018-04-26 07:00:00 7 19 Nordeste 30 Nordeste 0 -- -- 90
2018-04-26 06:00:00 7.7 20 Nordeste 27 Nordeste 0 -- -- 87
2018-04-26 05:00:00 8.1 21 Nordeste 36 Nordeste 0 -- -- 85
2018-04-26 04:00:00 8.6 25 Nordeste 35 Nordeste 0 -- -- 83
2018-04-26 03:00:00 9.1 20 Nordeste 35 Este 0 -- -- 85
2018-04-26 02:00:00 10.1 25 Este 38 Nordeste 0 -- -- 80
2018-04-26 01:00:00 10.8 18 Nordeste 39 Nordeste 0 -- -- 82
2018-04-26 00:00:00 11.2 30 Nordeste 44 Nordeste 0 -- -- 81
2018-04-25 23:00:00 12.8 26 Nordeste 46 Nordeste 0 -- -- 77
2018-04-25 22:00:00 21 12 Norte 18 Norte 0 -- -- 43
2018-04-25 21:00:00 21.3 9 Nordeste 14 Norte 0 -- -- 55
2018-04-25 20:00:00 24.7 5 Sudeste 13 Este 0 -- -- 43
2018-04-25 19:00:00 25.3 9 Este 17 Este 0 -- -- 42
2018-04-25 18:00:00 28.2 4 Sudeste 21 Nordeste 0 -- -- 31
2018-04-25 17:00:00 26 9 Norte 17 Norte 0 -- -- 29
2018-04-25 16:00:00 25.2 10 Nordeste 22 Noroeste 0 -- -- 34
2018-04-25 15:00:00 24.5 12 Noroeste 25 Noroeste 0 -- -- 42
2018-04-25 14:00:00 23.5 8 Norte 14 Norte 0 -- -- 42
2018-04-25 13:00:00 21.9 7 Nordeste 15 Nordeste 0 -- -- 49
2018-04-25 12:00:00 19.7 9 Nordeste 16 Nordeste 0 -- -- 58
2018-04-25 11:00:00 17.3 11 Este 18 Nordeste 0 -- -- 66
2018-04-25 10:00:00 15.1 13 Este 23 Nordeste 0 -- -- 74
2018-04-25 09:00:00 12.7 18 Nordeste 22 Nordeste 0 -- -- 82
2018-04-25 08:00:00 11.1 15 Nordeste 24 Nordeste 0 -- -- 86
2018-04-25 07:00:00 10.7 17 Nordeste 18 Nordeste 0 -- -- 87
2018-04-25 06:00:00 11.1 10 Nordeste 18 Nordeste 0 -- -- 84
2018-04-25 05:00:00 12.4 15 Nordeste 18 Este 0 -- -- 79
2018-04-25 04:00:00 11.2 10 Este 14 Nordeste 0 -- -- 82
2018-04-25 03:00:00 12.2 3 Este 9 Sur 0 -- -- 75
2018-04-25 02:00:00 13.5 4 Norte 9 Sur 0 -- -- 72
2018-04-25 01:00:00 14.2 4 Norte 15 Noroeste 0 -- -- 71
2018-04-25 00:00:00 15.4 5 Norte -- -- 0 -- -- 66